WetterOnline ( https://www.wetteronline.de )

Wetter aktuell Jöhstadt

Aktuelles Wetter: Fichtelberg (1215m)

6-stündlich | Neueste Meldungen
Ortszeit Temperatur Wetter
Di, 18.06. 14:00 19.7° C wolkig
Di, 18.06. 8:00 12.9° C leicht bewölkt
Di, 18.06. 2:00 10.9° C fast wolkenlos
Mo, 17.06. 20:00 15.0° C bewölkt
Mo, 17.06. 14:00 14.5° C bewölkt
Mo, 17.06. 8:00 11.1° C bewölkt
Mo, 17.06. 2:00 11.8° C bewölkt
So, 16.06. 20:00 13.6° C wolkenlos
Ortszeit Temperatur Wetter
Di, 18.06. 16:30 22.1° C leicht bewölkt
Di, 18.06. 16:20 22.1° C leicht bewölkt
Di, 18.06. 16:10 21.4° C leicht bewölkt
Di, 18.06. 16:00 22.0° C leicht bewölkt
Di, 18.06. 15:50 22.0° C wolkig
Di, 18.06. 15:40 21.3° C wolkig
Di, 18.06. 15:30 20.4° C leicht bewölkt
Di, 18.06. 15:00 20.8° C leicht bewölkt
Di, 18.06. 14:30 20.2° C fast wolkenlos
Di, 18.06. 14:00 19.7° C wolkig
Di, 18.06. 13:30 19.7° C bewölkt
Ortszeit Relative Feuchte Sichtweite
Di, 18.06. 14:00 62% >70 km
Di, 18.06. 8:00 88% >70 km
Di, 18.06. 2:00 90% >70 km
Mo, 17.06. 20:00 72% >70 km
Mo, 17.06. 14:00 77% >70 km
Mo, 17.06. 8:00 86% 60 km
Mo, 17.06. 2:00 79% 60 km
So, 16.06. 20:00 61% 65 km
Ortszeit Relative Feuchte Sichtweite
Di, 18.06. 16:30 58% >70 km
Di, 18.06. 16:20 58% -
Di, 18.06. 16:10 58% -
Di, 18.06. 16:00 59% >70 km
Di, 18.06. 15:50 59% -
Di, 18.06. 15:40 57% -
Di, 18.06. 15:30 60% >70 km
Di, 18.06. 15:00 59% 35 km
Di, 18.06. 14:30 59% 65 km
Di, 18.06. 14:00 62% >70 km
Di, 18.06. 13:30 62% >70 km
Ortszeit Niederschlagsmenge Niederschlagsart
Di, 18.06. 14:00 0.0 l/m2 in 6 Std. -
Di, 18.06. 8:00 0.1 l/m2 in 12 Std. -
Di, 18.06. 2:00 0.1 l/m2 in 6 Std. Regen
Mo, 17.06. 20:00 0.1 l/m2 in 12 Std. Regen
Mo, 17.06. 14:00 0.1 l/m2 in 6 Std. Regen
Mo, 17.06. 8:00 0.1 l/m2 in 12 Std. Regen
Mo, 17.06. 2:00 0.1 l/m2 in 6 Std. Regen
So, 16.06. 20:00 0.1 l/m2 in 12 Std. Regen
Ortszeit Niederschlagsmenge Niederschlagsart
Di, 18.06. 16:30 0.0 l/m2 in 30 Min -
Di, 18.06. 16:20 keine Meldung -
Di, 18.06. 16:10 keine Meldung -
Di, 18.06. 16:00 0.0 l/m2 in 1 Std. -
Di, 18.06. 15:50 keine Meldung -
Di, 18.06. 15:40 keine Meldung -
Di, 18.06. 15:30 0.0 l/m2 in 30 Min -
Di, 18.06. 15:00 0.0 l/m2 in 1 Std. -
Di, 18.06. 14:30 0.0 l/m2 in 30 Min -
Di, 18.06. 14:00 0.0 l/m2 in 1 Std. -
Di, 18.06. 13:30 0.0 l/m2 in 30 Min -
Ortszeit Stärke Spitze Richtung
km/h Bft. km/h Grad Sektor
Di, 18.06. 14:00 22 4 40 190° S
Di, 18.06. 8:00 20 4 48 240° SW
Di, 18.06. 2:00 28 4 41 250° W
Mo, 17.06. 20:00 22 4 58 260° W
Mo, 17.06. 14:00 32 5 65 240° SW
Mo, 17.06. 8:00 31 5 50 210° SW
Mo, 17.06. 2:00 40 6 54 240° SW
So, 16.06. 20:00 30 5 39 220° SW
Ortszeit Stärke Spitze Richtung
km/h Bft. km/h Grad Sektor
Di, 18.06. 16:30 20 4 33 200° S
Di, 18.06. 16:20 20 4 - 200° S
Di, 18.06. 16:10 18 3 - 200° S
Di, 18.06. 16:00 22 4 36 190° S
Di, 18.06. 15:50 22 4 - 190° S
Di, 18.06. 15:40 22 4 - 190° S
Di, 18.06. 15:30 22 4 36 170° S
Di, 18.06. 15:00 22 4 36 180° S
Di, 18.06. 14:30 22 4 36 190° S
Di, 18.06. 14:00 22 4 40 190° S
Di, 18.06. 13:30 18 3 40 240° SW
Ortszeit Untergrenze Bedeckung Gattung
total tief tief mittel hoch
Di, 18.06. 14:00 1050 m 6/8 5/8 - - -
Di, 18.06. 8:00 7500 m 7/8 0/8 - - -
Di, 18.06. 2:00 9000 m 2/8 0/8 - - -
Mo, 17.06. 20:00 1800 m 8/8 5/8 - - -
Mo, 17.06. 14:00 600 m 7/8 7/8 - - -
Mo, 17.06. 8:00 1800 m 8/8 5/8 - - -
Mo, 17.06. 2:00 1800 m 7/8 6/8 - - -
So, 16.06. 20:00 - 0/8 0/8 - - -
Ortszeit Bedeckungsgrad in Achtel und Wolkenuntergrenze
Di, 18.06. 16:30 3(1080m) 4(9000m)
Di, 18.06. 16:20 3(1080m) 4(9000m)
Di, 18.06. 16:10 4
Di, 18.06. 16:00 1(5700m) 7(9000m)
Di, 18.06. 15:50 1(5700m) 7(9000m)
Di, 18.06. 15:40 6
Di, 18.06. 15:30 3(1020m) 4(5400m) 5(9000m)
Di, 18.06. 15:00 2(1050m)
Di, 18.06. 14:30 1(960m)
Di, 18.06. 14:00 5(1050m) 6(6600m) 6(7200m)
Di, 18.06. 13:30 6(930m) 7(1170m)
Ortszeit Stationsdruck (hPa) Tendenz (hPa in 3 Std.)
Di, 18.06. 14:00 882 - 0,3
Di, 18.06. 8:00 882 + 0,6
Di, 18.06. 2:00 881 + 0,4
Mo, 17.06. 20:00 880 + 0,4
Mo, 17.06. 14:00 879 + 0,8
Mo, 17.06. 8:00 878 + 0,3
Mo, 17.06. 2:00 877 + 0,3
So, 16.06. 20:00 876 + 0,1
Ortszeit Stationsdruck (hPa) Tendenz (hPa in 3 Std.)
Di, 18.06. 16:30 881 - 1,1
Di, 18.06. 16:20 881 keine Meldung
Di, 18.06. 16:10 881 keine Meldung
Di, 18.06. 16:00 881 - 0,9
Di, 18.06. 15:50 881 keine Meldung
Di, 18.06. 15:40 881 keine Meldung
Di, 18.06. 15:30 881 - 0,7
Di, 18.06. 15:00 881 - 0,5
Di, 18.06. 14:30 882 - 0,4
Di, 18.06. 14:00 882 - 0,3
Di, 18.06. 13:30 882 - 0,1
Ortszeit Schneehöhe (cm)
Di, 18.06. 14:00 0
Di, 18.06. 8:00 0
Di, 18.06. 2:00 0
Mo, 17.06. 20:00 0
Mo, 17.06. 14:00 0
Mo, 17.06. 8:00 0
Mo, 17.06. 2:00 0
So, 16.06. 20:00 0
Ortszeit Schneehöhe (cm)
Di, 18.06. 16:30 0
Di, 18.06. 16:20 0
Di, 18.06. 16:10 -
Di, 18.06. 16:00 0
Di, 18.06. 15:50 0
Di, 18.06. 15:40 -
Di, 18.06. 15:30 0
Di, 18.06. 15:00 0
Di, 18.06. 14:30 0
Di, 18.06. 14:00 0
Di, 18.06. 13:30 0
Link zu dieser Seite / Seite empfehlen

Das Wetter in ...